sensor_id;sensor_type;location;lat;lon;timestamp;P1;durP1;ratioP1;P2;durP2;ratioP2
39442;SDS011;25147;52.142;9.960;2023-04-25T00:01:11;11.77;;;4.57;;
39442;SDS011;25147;52.142;9.960;2023-04-25T00:04:25;11.05;;;4.25;;
39442;SDS011;25147;52.142;9.960;2023-04-25T00:07:15;9.88;;;5.20;;
39442;SDS011;25147;52.142;9.960;2023-04-25T00:09:43;11.50;;;4.55;;
39442;SDS011;25147;52.142;9.960;2023-04-25T00:12:18;12.05;;;5.25;;
39442;SDS011;25147;52.142;9.960;2023-04-25T00:21:13;9.68;;;5.15;;
39442;SDS011;25147;52.142;9.960;2023-04-25T00:24:28;10.50;;;5.00;;
39442;SDS011;25147;52.142;9.960;2023-04-25T00:27:05;14.90;;;5.50;;
39442;SDS011;25147;52.142;9.960;2023-04-25T00:29:46;14.02;;;5.30;;
39442;SDS011;25147;52.142;9.960;2023-04-25T00:32:23;11.52;;;5.32;;
39442;SDS011;25147;52.142;9.960;2023-04-25T00:35:04;11.38;;;5.78;;
39442;SDS011;25147;52.142;9.960;2023-04-25T00:37:38;9.65;;;5.25;;
39442;SDS011;25147;52.142;9.960;2023-04-25T00:40:17;10.85;;;4.90;;
39442;SDS011;25147;52.142;9.960;2023-04-25T00:43:02;13.88;;;5.78;;
39442;SDS011;25147;52.142;9.960;2023-04-25T00:45:38;13.02;;;5.57;;
39442;SDS011;25147;52.142;9.960;2023-04-25T00:48:12;10.55;;;6.60;;
39442;SDS011;25147;52.142;9.960;2023-04-25T00:50:52;12.25;;;5.80;;
39442;SDS011;25147;52.142;9.960;2023-04-25T00:53:30;11.00;;;5.70;;
39442;SDS011;25147;52.142;9.960;2023-04-25T00:56:19;11.18;;;6.05;;
39442;SDS011;25147;52.142;9.960;2023-04-25T00:59:02;11.88;;;5.72;;
39442;SDS011;25147;52.142;9.960;2023-04-25T01:01:59;13.98;;;6.50;;
39442;SDS011;25147;52.142;9.960;2023-04-25T01:05:19;11.13;;;5.80;;
39442;SDS011;25147;52.142;9.960;2023-04-25T01:08:10;15.63;;;6.60;;
39442;SDS011;25147;52.142;9.960;2023-04-25T01:14:20;11.38;;;6.32;;
39442;SDS011;25147;52.142;9.960;2023-04-25T01:17:03;13.73;;;6.20;;
39442;SDS011;25147;52.142;9.960;2023-04-25T01:20:16;13.87;;;6.80;;
39442;SDS011;25147;52.142;9.960;2023-04-25T01:23:00;14.48;;;7.00;;
39442;SDS011;25147;52.142;9.960;2023-04-25T01:26:24;10.68;;;6.22;;
39442;SDS011;25147;52.142;9.960;2023-04-25T01:31:41;14.73;;;7.15;;
39442;SDS011;25147;52.142;9.960;2023-04-25T01:34:49;12.50;;;6.30;;
39442;SDS011;25147;52.142;9.960;2023-04-25T01:40:14;15.18;;;6.78;;
39442;SDS011;25147;52.142;9.960;2023-04-25T01:43:20;13.25;;;6.30;;
39442;SDS011;25147;52.142;9.960;2023-04-25T01:46:08;13.32;;;7.00;;
39442;SDS011;25147;52.142;9.960;2023-04-25T01:48:53;16.10;;;7.43;;
39442;SDS011;25147;52.142;9.960;2023-04-25T01:51:44;15.95;;;7.28;;
39442;SDS011;25147;52.142;9.960;2023-04-25T01:54:25;17.00;;;7.30;;
39442;SDS011;25147;52.142;9.960;2023-04-25T01:57:15;14.70;;;7.22;;
39442;SDS011;25147;52.142;9.960;2023-04-25T02:00:12;9.43;;;6.88;;
39442;SDS011;25147;52.142;9.960;2023-04-25T02:03:12;11.93;;;7.07;;
39442;SDS011;25147;52.142;9.960;2023-04-25T02:06:14;12.07;;;6.78;;
39442;SDS011;25147;52.142;9.960;2023-04-25T02:09:10;11.93;;;7.13;;
39442;SDS011;25147;52.142;9.960;2023-04-25T02:11:59;11.55;;;6.93;;
39442;SDS011;25147;52.142;9.960;2023-04-25T02:14:45;9.00;;;6.80;;
39442;SDS011;25147;52.142;9.960;2023-04-25T02:17:35;11.55;;;7.50;;
39442;SDS011;25147;52.142;9.960;2023-04-25T02:23:00;14.80;;;7.60;;
39442;SDS011;25147;52.142;9.960;2023-04-25T02:25:35;16.20;;;7.45;;
39442;SDS011;25147;52.142;9.960;2023-04-25T02:28:21;13.50;;;7.32;;
39442;SDS011;25147;52.142;9.960;2023-04-25T02:34:04;11.45;;;7.63;;
39442;SDS011;25147;52.142;9.960;2023-04-25T02:37:02;14.55;;;8.10;;
39442;SDS011;25147;52.142;9.960;2023-04-25T02:40:04;17.27;;;8.45;;
39442;SDS011;25147;52.142;9.960;2023-04-25T02:48:54;12.30;;;6.55;;
39442;SDS011;25147;52.142;9.960;2023-04-25T02:51:41;9.77;;;7.45;;
39442;SDS011;25147;52.142;9.960;2023-04-25T02:54:50;13.73;;;7.40;;
39442;SDS011;25147;52.142;9.960;2023-04-25T02:57:50;12.65;;;7.55;;
39442;SDS011;25147;52.142;9.960;2023-04-25T03:08:17;11.82;;;7.00;;
39442;SDS011;25147;52.142;9.960;2023-04-25T03:18:37;11.32;;;7.50;;
39442;SDS011;25147;52.142;9.960;2023-04-25T03:22:09;8.85;;;6.40;;
39442;SDS011;25147;52.142;9.960;2023-04-25T03:25:31;11.95;;;5.95;;
39442;SDS011;25147;52.142;9.960;2023-04-25T03:28:08;14.88;;;6.50;;
39442;SDS011;25147;52.142;9.960;2023-04-25T03:30:48;23.25;;;6.82;;
39442;SDS011;25147;52.142;9.960;2023-04-25T03:34:07;10.48;;;5.47;;
39442;SDS011;25147;52.142;9.960;2023-04-25T03:36:55;15.27;;;5.80;;
39442;SDS011;25147;52.142;9.960;2023-04-25T03:39:35;15.98;;;5.28;;
39442;SDS011;25147;52.142;9.960;2023-04-25T03:45:44;14.30;;;4.90;;
39442;SDS011;25147;52.142;9.960;2023-04-25T03:51:53;19.40;;;5.63;;
39442;SDS011;25147;52.142;9.960;2023-04-25T03:54:32;17.42;;;4.78;;
39442;SDS011;25147;52.142;9.960;2023-04-25T03:57:33;15.57;;;4.57;;
39442;SDS011;25147;52.142;9.960;2023-04-25T04:00:23;15.05;;;4.88;;
39442;SDS011;25147;52.142;9.960;2023-04-25T04:03:00;21.57;;;5.00;;
39442;SDS011;25147;52.142;9.960;2023-04-25T04:06:40;15.70;;;4.93;;
39442;SDS011;25147;52.142;9.960;2023-04-25T04:09:25;16.20;;;5.23;;
39442;SDS011;25147;52.142;9.960;2023-04-25T04:12:20;22.30;;;5.45;;
39442;SDS011;25147;52.142;9.960;2023-04-25T04:14:55;15.80;;;5.53;;
39442;SDS011;25147;52.142;9.960;2023-04-25T04:17:35;16.25;;;4.78;;
39442;SDS011;25147;52.142;9.960;2023-04-25T04:20:04;13.77;;;5.30;;
39442;SDS011;25147;52.142;9.960;2023-04-25T04:23:13;17.33;;;5.18;;
39442;SDS011;25147;52.142;9.960;2023-04-25T04:25:46;16.42;;;4.93;;
39442;SDS011;25147;52.142;9.960;2023-04-25T04:28:29;20.42;;;5.68;;
39442;SDS011;25147;52.142;9.960;2023-04-25T04:31:06;17.13;;;4.65;;
39442;SDS011;25147;52.142;9.960;2023-04-25T04:33:56;19.23;;;5.28;;
39442;SDS011;25147;52.142;9.960;2023-04-25T04:36:35;19.92;;;5.47;;
39442;SDS011;25147;52.142;9.960;2023-04-25T04:42:13;20.13;;;5.43;;
39442;SDS011;25147;52.142;9.960;2023-04-25T04:44:41;17.80;;;5.38;;
39442;SDS011;25147;52.142;9.960;2023-04-25T04:47:32;20.77;;;5.30;;
39442;SDS011;25147;52.142;9.960;2023-04-25T04:50:29;18.95;;;5.63;;
39442;SDS011;25147;52.142;9.960;2023-04-25T04:53:18;21.40;;;5.53;;
39442;SDS011;25147;52.142;9.960;2023-04-25T04:56:24;22.98;;;5.57;;
39442;SDS011;25147;52.142;9.960;2023-04-25T04:59:28;21.50;;;5.53;;
39442;SDS011;25147;52.142;9.960;2023-04-25T05:02:19;24.98;;;5.75;;
39442;SDS011;25147;52.142;9.960;2023-04-25T05:08:24;16.38;;;5.57;;
39442;SDS011;25147;52.142;9.960;2023-04-25T05:10:52;20.45;;;5.85;;
39442;SDS011;25147;52.142;9.960;2023-04-25T05:13:34;16.33;;;5.30;;
39442;SDS011;25147;52.142;9.960;2023-04-25T05:16:52;17.98;;;4.78;;
39442;SDS011;25147;52.142;9.960;2023-04-25T05:19:47;17.88;;;4.80;;
39442;SDS011;25147;52.142;9.960;2023-04-25T05:22:31;15.43;;;5.18;;
39442;SDS011;25147;52.142;9.960;2023-04-25T05:25:28;15.40;;;5.47;;
39442;SDS011;25147;52.142;9.960;2023-04-25T05:31:29;19.75;;;5.55;;
39442;SDS011;25147;52.142;9.960;2023-04-25T05:34:06;20.00;;;4.53;;
39442;SDS011;25147;52.142;9.960;2023-04-25T05:36:41;15.95;;;4.82;;
39442;SDS011;25147;52.142;9.960;2023-04-25T05:39:21;18.55;;;5.03;;
39442;SDS011;25147;52.142;9.960;2023-04-25T05:42:02;18.67;;;5.53;;
39442;SDS011;25147;52.142;9.960;2023-04-25T05:45:08;22.20;;;5.35;;
39442;SDS011;25147;52.142;9.960;2023-04-25T05:47:54;12.98;;;4.93;;
39442;SDS011;25147;52.142;9.960;2023-04-25T05:50:39;18.50;;;4.85;;
39442;SDS011;25147;52.142;9.960;2023-04-25T05:53:26;17.48;;;4.35;;
39442;SDS011;25147;52.142;9.960;2023-04-25T05:56:05;11.52;;;5.20;;
39442;SDS011;25147;52.142;9.960;2023-04-25T05:58:44;22.08;;;5.60;;
39442;SDS011;25147;52.142;9.960;2023-04-25T06:01:58;16.95;;;4.63;;
39442;SDS011;25147;52.142;9.960;2023-04-25T06:04:37;16.83;;;4.28;;
39442;SDS011;25147;52.142;9.960;2023-04-25T06:07:26;18.13;;;5.00;;
39442;SDS011;25147;52.142;9.960;2023-04-25T06:10:12;17.40;;;4.47;;
39442;SDS011;25147;52.142;9.960;2023-04-25T06:13:12;15.30;;;3.90;;
39442;SDS011;25147;52.142;9.960;2023-04-25T06:16:04;19.02;;;4.18;;
39442;SDS011;25147;52.142;9.960;2023-04-25T06:18:32;16.98;;;3.80;;
39442;SDS011;25147;52.142;9.960;2023-04-25T06:21:13;16.73;;;4.10;;
39442;SDS011;25147;52.142;9.960;2023-04-25T06:24:08;20.85;;;4.45;;
39442;SDS011;25147;52.142;9.960;2023-04-25T06:26:50;17.35;;;4.32;;
39442;SDS011;25147;52.142;9.960;2023-04-25T06:29:45;17.65;;;4.40;;
39442;SDS011;25147;52.142;9.960;2023-04-25T06:32:47;9.52;;;3.25;;
39442;SDS011;25147;52.142;9.960;2023-04-25T06:35:36;14.82;;;4.35;;
39442;SDS011;25147;52.142;9.960;2023-04-25T06:38:30;14.30;;;3.78;;
39442;SDS011;25147;52.142;9.960;2023-04-25T06:41:22;16.15;;;3.28;;
39442;SDS011;25147;52.142;9.960;2023-04-25T06:44:12;14.75;;;3.58;;
39442;SDS011;25147;52.142;9.960;2023-04-25T06:47:07;17.13;;;4.05;;
39442;SDS011;25147;52.142;9.960;2023-04-25T06:49:53;12.95;;;3.67;;
39442;SDS011;25147;52.142;9.960;2023-04-25T06:52:24;14.50;;;3.45;;
39442;SDS011;25147;52.142;9.960;2023-04-25T06:57:25;12.77;;;3.67;;
39442;SDS011;25147;52.142;9.960;2023-04-25T06:58:39;15.07;;;4.60;;
39442;SDS011;25147;52.142;9.960;2023-04-25T07:01:57;12.30;;;3.17;;
39442;SDS011;25147;52.142;9.960;2023-04-25T07:07:56;16.05;;;3.75;;
39442;SDS011;25147;52.142;9.960;2023-04-25T07:13:27;13.63;;;3.80;;
39442;SDS011;25147;52.142;9.960;2023-04-25T07:16:10;15.48;;;4.32;;
39442;SDS011;25147;52.142;9.960;2023-04-25T07:19:29;14.00;;;4.05;;
39442;SDS011;25147;52.142;9.960;2023-04-25T07:22:14;19.98;;;4.45;;
39442;SDS011;25147;52.142;9.960;2023-04-25T07:24:50;15.98;;;3.97;;
39442;SDS011;25147;52.142;9.960;2023-04-25T07:27:24;14.15;;;3.63;;
39442;SDS011;25147;52.142;9.960;2023-04-25T07:30:20;15.13;;;3.75;;
39442;SDS011;25147;52.142;9.960;2023-04-25T07:33:18;12.90;;;3.25;;
39442;SDS011;25147;52.142;9.960;2023-04-25T07:36:10;17.45;;;3.10;;
39442;SDS011;25147;52.142;9.960;2023-04-25T07:38:59;16.48;;;3.47;;
39442;SDS011;25147;52.142;9.960;2023-04-25T07:41:32;12.00;;;2.60;;
39442;SDS011;25147;52.142;9.960;2023-04-25T07:44:24;18.02;;;3.22;;
39442;SDS011;25147;52.142;9.960;2023-04-25T07:47:17;8.20;;;3.10;;
39442;SDS011;25147;52.142;9.960;2023-04-25T07:50:06;6.07;;;2.20;;
39442;SDS011;25147;52.142;9.960;2023-04-25T07:52:44;11.70;;;3.05;;
39442;SDS011;25147;52.142;9.960;2023-04-25T07:55:25;11.57;;;2.88;;
39442;SDS011;25147;52.142;9.960;2023-04-25T07:58:28;12.15;;;2.97;;
39442;SDS011;25147;52.142;9.960;2023-04-25T08:01:25;6.85;;;2.65;;
39442;SDS011;25147;52.142;9.960;2023-04-25T08:04:09;6.45;;;2.10;;
39442;SDS011;25147;52.142;9.960;2023-04-25T08:07:11;10.18;;;2.83;;
39442;SDS011;25147;52.142;9.960;2023-04-25T08:09:55;7.10;;;2.40;;
39442;SDS011;25147;52.142;9.960;2023-04-25T08:12:53;8.73;;;3.00;;
39442;SDS011;25147;52.142;9.960;2023-04-25T08:15:34;10.45;;;2.78;;
39442;SDS011;25147;52.142;9.960;2023-04-25T08:18:29;11.88;;;2.95;;
39442;SDS011;25147;52.142;9.960;2023-04-25T08:21:07;12.02;;;3.95;;
39442;SDS011;25147;52.142;9.960;2023-04-25T08:23:46;10.18;;;3.20;;
39442;SDS011;25147;52.142;9.960;2023-04-25T08:26:28;13.20;;;3.58;;
39442;SDS011;25147;52.142;9.960;2023-04-25T08:29:02;9.82;;;3.35;;
39442;SDS011;25147;52.142;9.960;2023-04-25T08:31:40;8.65;;;1.95;;
39442;SDS011;25147;52.142;9.960;2023-04-25T08:34:34;10.65;;;2.97;;
39442;SDS011;25147;52.142;9.960;2023-04-25T08:37:19;5.90;;;2.30;;
39442;SDS011;25147;52.142;9.960;2023-04-25T08:43:23;9.93;;;2.50;;
39442;SDS011;25147;52.142;9.960;2023-04-25T08:46:06;8.57;;;2.55;;
39442;SDS011;25147;52.142;9.960;2023-04-25T08:51:49;8.32;;;2.03;;
39442;SDS011;25147;52.142;9.960;2023-04-25T08:54:54;7.55;;;2.22;;
39442;SDS011;25147;52.142;9.960;2023-04-25T08:57:54;8.25;;;2.65;;
39442;SDS011;25147;52.142;9.960;2023-04-25T09:00:29;10.00;;;2.53;;
39442;SDS011;25147;52.142;9.960;2023-04-25T09:03:15;7.20;;;2.28;;
39442;SDS011;25147;52.142;9.960;2023-04-25T09:05:56;7.53;;;2.08;;
39442;SDS011;25147;52.142;9.960;2023-04-25T09:08:38;5.57;;;2.28;;
39442;SDS011;25147;52.142;9.960;2023-04-25T09:11:23;8.63;;;2.22;;
39442;SDS011;25147;52.142;9.960;2023-04-25T09:13:54;5.53;;;1.80;;
39442;SDS011;25147;52.142;9.960;2023-04-25T09:17:06;7.88;;;2.53;;
39442;SDS011;25147;52.142;9.960;2023-04-25T09:19:42;7.45;;;2.40;;
39442;SDS011;25147;52.142;9.960;2023-04-25T09:22:22;7.07;;;2.08;;
39442;SDS011;25147;52.142;9.960;2023-04-25T09:25:35;8.60;;;2.30;;
39442;SDS011;25147;52.142;9.960;2023-04-25T09:31:53;5.47;;;2.70;;
39442;SDS011;25147;52.142;9.960;2023-04-25T09:34:48;5.72;;;2.20;;
39442;SDS011;25147;52.142;9.960;2023-04-25T09:37:30;11.90;;;2.53;;
39442;SDS011;25147;52.142;9.960;2023-04-25T09:40:19;8.95;;;2.20;;
39442;SDS011;25147;52.142;9.960;2023-04-25T09:43:33;6.13;;;2.13;;
39442;SDS011;25147;52.142;9.960;2023-04-25T09:46:39;10.13;;;2.47;;
39442;SDS011;25147;52.142;9.960;2023-04-25T09:49:32;7.10;;;2.25;;
39442;SDS011;25147;52.142;9.960;2023-04-25T09:52:29;6.10;;;2.13;;
39442;SDS011;25147;52.142;9.960;2023-04-25T09:55:47;5.80;;;1.75;;
39442;SDS011;25147;52.142;9.960;2023-04-25T10:02:41;8.48;;;2.45;;
39442;SDS011;25147;52.142;9.960;2023-04-25T10:05:37;7.38;;;2.10;;
39442;SDS011;25147;52.142;9.960;2023-04-25T10:09:02;7.43;;;2.67;;
39442;SDS011;25147;52.142;9.960;2023-04-25T10:11:59;5.75;;;2.13;;
39442;SDS011;25147;52.142;9.960;2023-04-25T10:14:29;7.32;;;2.38;;
39442;SDS011;25147;52.142;9.960;2023-04-25T10:16:57;5.50;;;2.53;;
39442;SDS011;25147;52.142;9.960;2023-04-25T10:19:44;7.65;;;2.60;;
39442;SDS011;25147;52.142;9.960;2023-04-25T10:22:17;5.25;;;2.05;;
39442;SDS011;25147;52.142;9.960;2023-04-25T10:25:00;6.13;;;2.22;;
39442;SDS011;25147;52.142;9.960;2023-04-25T10:27:34;6.90;;;1.98;;
39442;SDS011;25147;52.142;9.960;2023-04-25T10:30:03;6.80;;;2.72;;
39442;SDS011;25147;52.142;9.960;2023-04-25T10:32:41;8.68;;;2.60;;
39442;SDS011;25147;52.142;9.960;2023-04-25T10:35:24;7.97;;;2.38;;
39442;SDS011;25147;52.142;9.960;2023-04-25T10:38:29;10.77;;;2.25;;
39442;SDS011;25147;52.142;9.960;2023-04-25T10:41:08;6.35;;;1.60;;
39442;SDS011;25147;52.142;9.960;2023-04-25T10:43:40;5.97;;;1.90;;
39442;SDS011;25147;52.142;9.960;2023-04-25T10:46:31;5.75;;;1.83;;
39442;SDS011;25147;52.142;9.960;2023-04-25T10:49:47;3.90;;;1.95;;
39442;SDS011;25147;52.142;9.960;2023-04-25T10:52:50;8.23;;;2.15;;
39442;SDS011;25147;52.142;9.960;2023-04-25T10:56:06;9.52;;;2.17;;
39442;SDS011;25147;52.142;9.960;2023-04-25T10:58:46;7.07;;;1.92;;
39442;SDS011;25147;52.142;9.960;2023-04-25T11:01:28;8.35;;;2.28;;
39442;SDS011;25147;52.142;9.960;2023-04-25T11:04:23;7.63;;;2.17;;
39442;SDS011;25147;52.142;9.960;2023-04-25T11:07:02;8.30;;;2.65;;
39442;SDS011;25147;52.142;9.960;2023-04-25T11:09:42;6.07;;;2.22;;
39442;SDS011;25147;52.142;9.960;2023-04-25T11:12:17;5.05;;;1.83;;
39442;SDS011;25147;52.142;9.960;2023-04-25T11:14:47;9.73;;;2.28;;
39442;SDS011;25147;52.142;9.960;2023-04-25T11:17:17;7.28;;;2.47;;
39442;SDS011;25147;52.142;9.960;2023-04-25T11:19:44;5.57;;;2.00;;
39442;SDS011;25147;52.142;9.960;2023-04-25T11:22:15;5.47;;;2.00;;
39442;SDS011;25147;52.142;9.960;2023-04-25T11:24:42;6.35;;;1.85;;
39442;SDS011;25147;52.142;9.960;2023-04-25T11:27:09;6.68;;;2.00;;
39442;SDS011;25147;52.142;9.960;2023-04-25T11:29:38;4.88;;;2.30;;
39442;SDS011;25147;52.142;9.960;2023-04-25T11:32:15;5.07;;;2.10;;
39442;SDS011;25147;52.142;9.960;2023-04-25T11:34:47;6.85;;;2.30;;
39442;SDS011;25147;52.142;9.960;2023-04-25T11:37:36;6.50;;;3.22;;
39442;SDS011;25147;52.142;9.960;2023-04-25T11:40:24;5.95;;;1.95;;
39442;SDS011;25147;52.142;9.960;2023-04-25T11:43:05;7.30;;;2.17;;
39442;SDS011;25147;52.142;9.960;2023-04-25T11:45:52;6.65;;;2.42;;
39442;SDS011;25147;52.142;9.960;2023-04-25T11:48:42;8.48;;;2.50;;
39442;SDS011;25147;52.142;9.960;2023-04-25T11:51:24;5.43;;;1.80;;
39442;SDS011;25147;52.142;9.960;2023-04-25T11:54:05;6.05;;;2.38;;
39442;SDS011;25147;52.142;9.960;2023-04-25T11:56:51;5.68;;;2.35;;
39442;SDS011;25147;52.142;9.960;2023-04-25T11:59:23;9.82;;;2.55;;
39442;SDS011;25147;52.142;9.960;2023-04-25T12:02:04;6.43;;;2.33;;
39442;SDS011;25147;52.142;9.960;2023-04-25T12:04:40;6.57;;;2.20;;
39442;SDS011;25147;52.142;9.960;2023-04-25T12:07:15;8.52;;;2.17;;
39442;SDS011;25147;52.142;9.960;2023-04-25T12:10:09;6.25;;;2.05;;
39442;SDS011;25147;52.142;9.960;2023-04-25T12:12:56;6.13;;;2.10;;
39442;SDS011;25147;52.142;9.960;2023-04-25T12:18:26;4.38;;;2.00;;
39442;SDS011;25147;52.142;9.960;2023-04-25T12:28:44;5.57;;;2.17;;
39442;SDS011;25147;52.142;9.960;2023-04-25T12:34:40;7.18;;;1.63;;
39442;SDS011;25147;52.142;9.960;2023-04-25T12:37:36;5.25;;;1.92;;
39442;SDS011;25147;52.142;9.960;2023-04-25T12:40:10;10.18;;;2.72;;
39442;SDS011;25147;52.142;9.960;2023-04-25T12:42:46;6.70;;;1.65;;
39442;SDS011;25147;52.142;9.960;2023-04-25T12:45:30;6.25;;;2.30;;
39442;SDS011;25147;52.142;9.960;2023-04-25T12:48:08;8.55;;;2.00;;
39442;SDS011;25147;52.142;9.960;2023-04-25T12:51:12;4.40;;;1.60;;
39442;SDS011;25147;52.142;9.960;2023-04-25T12:54:02;5.10;;;1.65;;
39442;SDS011;25147;52.142;9.960;2023-04-25T12:56:41;6.00;;;1.58;;
39442;SDS011;25147;52.142;9.960;2023-04-25T12:59:18;9.27;;;2.30;;
39442;SDS011;25147;52.142;9.960;2023-04-25T13:01:58;3.72;;;1.88;;
39442;SDS011;25147;52.142;9.960;2023-04-25T13:04:37;4.82;;;1.77;;
39442;SDS011;25147;52.142;9.960;2023-04-25T13:07:27;5.18;;;1.40;;
39442;SDS011;25147;52.142;9.960;2023-04-25T13:10:13;5.80;;;1.70;;
39442;SDS011;25147;52.142;9.960;2023-04-25T13:13:24;3.05;;;1.58;;
39442;SDS011;25147;52.142;9.960;2023-04-25T13:16:13;4.53;;;1.23;;
39442;SDS011;25147;52.142;9.960;2023-04-25T13:18:50;3.03;;;1.30;;
39442;SDS011;25147;52.142;9.960;2023-04-25T13:21:44;2.60;;;1.10;;
39442;SDS011;25147;52.142;9.960;2023-04-25T13:24:24;3.15;;;1.08;;
39442;SDS011;25147;52.142;9.960;2023-04-25T13:27:02;2.47;;;1.75;;
39442;SDS011;25147;52.142;9.960;2023-04-25T13:29:49;5.93;;;1.40;;
39442;SDS011;25147;52.142;9.960;2023-04-25T13:32:40;3.25;;;1.50;;
39442;SDS011;25147;52.142;9.960;2023-04-25T13:35:16;5.28;;;1.52;;
39442;SDS011;25147;52.142;9.960;2023-04-25T13:37:51;5.45;;;1.83;;
39442;SDS011;25147;52.142;9.960;2023-04-25T13:40:26;1.85;;;1.10;;
39442;SDS011;25147;52.142;9.960;2023-04-25T13:43:16;4.15;;;1.50;;
39442;SDS011;25147;52.142;9.960;2023-04-25T13:45:54;2.70;;;1.08;;
39442;SDS011;25147;52.142;9.960;2023-04-25T13:48:57;3.10;;;1.40;;
39442;SDS011;25147;52.142;9.960;2023-04-25T13:52:04;2.97;;;1.02;;
39442;SDS011;25147;52.142;9.960;2023-04-25T13:54:51;2.45;;;1.23;;
39442;SDS011;25147;52.142;9.960;2023-04-25T13:57:46;5.72;;;1.65;;
39442;SDS011;25147;52.142;9.960;2023-04-25T14:00:17;4.03;;;1.70;;
39442;SDS011;25147;52.142;9.960;2023-04-25T14:02:52;3.47;;;1.60;;
39442;SDS011;25147;52.142;9.960;2023-04-25T14:05:22;3.17;;;1.58;;
39442;SDS011;25147;52.142;9.960;2023-04-25T14:07:59;2.53;;;1.10;;
39442;SDS011;25147;52.142;9.960;2023-04-25T14:10:30;2.40;;;1.23;;
39442;SDS011;25147;52.142;9.960;2023-04-25T14:13:03;4.03;;;1.50;;
39442;SDS011;25147;52.142;9.960;2023-04-25T14:15:55;5.05;;;1.38;;
39442;SDS011;25147;52.142;9.960;2023-04-25T14:18:25;3.33;;;1.30;;
39442;SDS011;25147;52.142;9.960;2023-04-25T14:21:01;3.33;;;1.55;;
39442;SDS011;25147;52.142;9.960;2023-04-25T14:23:35;3.90;;;1.88;;
39442;SDS011;25147;52.142;9.960;2023-04-25T14:26:08;3.92;;;1.65;;
39442;SDS011;25147;52.142;9.960;2023-04-25T14:31:27;6.03;;;1.85;;
39442;SDS011;25147;52.142;9.960;2023-04-25T14:33:55;2.53;;;1.27;;
39442;SDS011;25147;52.142;9.960;2023-04-25T14:36:36;4.65;;;1.75;;
39442;SDS011;25147;52.142;9.960;2023-04-25T14:39:35;3.45;;;1.83;;
39442;SDS011;25147;52.142;9.960;2023-04-25T14:42:03;3.70;;;1.63;;
39442;SDS011;25147;52.142;9.960;2023-04-25T14:47:31;5.60;;;1.52;;
39442;SDS011;25147;52.142;9.960;2023-04-25T14:49:59;2.60;;;1.50;;
39442;SDS011;25147;52.142;9.960;2023-04-25T14:52:40;4.43;;;1.88;;
39442;SDS011;25147;52.142;9.960;2023-04-25T14:55:07;3.80;;;1.52;;
39442;SDS011;25147;52.142;9.960;2023-04-25T14:57:40;3.85;;;2.10;;
39442;SDS011;25147;52.142;9.960;2023-04-25T15:00:21;4.32;;;1.98;;
39442;SDS011;25147;52.142;9.960;2023-04-25T15:02:50;3.97;;;1.63;;
39442;SDS011;25147;52.142;9.960;2023-04-25T15:05:32;3.00;;;1.75;;
39442;SDS011;25147;52.142;9.960;2023-04-25T15:08:36;3.67;;;1.75;;
39442;SDS011;25147;52.142;9.960;2023-04-25T15:11:20;3.33;;;1.40;;
39442;SDS011;25147;52.142;9.960;2023-04-25T15:13:53;4.30;;;1.67;;
39442;SDS011;25147;52.142;9.960;2023-04-25T15:16:44;5.35;;;1.65;;
39442;SDS011;25147;52.142;9.960;2023-04-25T15:19:23;5.85;;;1.73;;
39442;SDS011;25147;52.142;9.960;2023-04-25T15:22:02;3.15;;;1.48;;
39442;SDS011;25147;52.142;9.960;2023-04-25T15:24:49;4.18;;;1.70;;
39442;SDS011;25147;52.142;9.960;2023-04-25T15:27:31;4.22;;;1.55;;
39442;SDS011;25147;52.142;9.960;2023-04-25T15:30:19;4.60;;;2.10;;
39442;SDS011;25147;52.142;9.960;2023-04-25T15:33:04;5.78;;;1.70;;
39442;SDS011;25147;52.142;9.960;2023-04-25T15:35:59;3.55;;;1.75;;
39442;SDS011;25147;52.142;9.960;2023-04-25T15:39:01;5.43;;;2.03;;
39442;SDS011;25147;52.142;9.960;2023-04-25T15:41:39;4.20;;;1.95;;
39442;SDS011;25147;52.142;9.960;2023-04-25T15:44:22;5.40;;;1.95;;
39442;SDS011;25147;52.142;9.960;2023-04-25T15:50:16;4.28;;;1.40;;
39442;SDS011;25147;52.142;9.960;2023-04-25T15:53:04;2.97;;;1.23;;
39442;SDS011;25147;52.142;9.960;2023-04-25T15:55:53;3.17;;;1.50;;
39442;SDS011;25147;52.142;9.960;2023-04-25T15:58:40;9.95;;;2.00;;
39442;SDS011;25147;52.142;9.960;2023-04-25T16:01:18;4.03;;;1.55;;
39442;SDS011;25147;52.142;9.960;2023-04-25T16:04:07;2.65;;;1.15;;
39442;SDS011;25147;52.142;9.960;2023-04-25T16:09:33;6.35;;;1.65;;
39442;SDS011;25147;52.142;9.960;2023-04-25T16:12:09;3.08;;;1.27;;
39442;SDS011;25147;52.142;9.960;2023-04-25T16:17:25;3.80;;;1.50;;
39442;SDS011;25147;52.142;9.960;2023-04-25T16:19:54;4.45;;;1.60;;
39442;SDS011;25147;52.142;9.960;2023-04-25T16:22:39;5.50;;;1.80;;
39442;SDS011;25147;52.142;9.960;2023-04-25T16:25:10;3.80;;;1.70;;
39442;SDS011;25147;52.142;9.960;2023-04-25T16:27:45;3.88;;;1.45;;
39442;SDS011;25147;52.142;9.960;2023-04-25T16:30:12;2.72;;;1.33;;
39442;SDS011;25147;52.142;9.960;2023-04-25T16:32:49;6.28;;;1.90;;
39442;SDS011;25147;52.142;9.960;2023-04-25T16:35:30;3.67;;;1.20;;
39442;SDS011;25147;52.142;9.960;2023-04-25T16:38:06;3.35;;;1.70;;
39442;SDS011;25147;52.142;9.960;2023-04-25T16:44:03;5.82;;;1.98;;
39442;SDS011;25147;52.142;9.960;2023-04-25T16:46:38;3.10;;;1.38;;
39442;SDS011;25147;52.142;9.960;2023-04-25T16:49:08;3.72;;;1.40;;
39442;SDS011;25147;52.142;9.960;2023-04-25T16:51:38;5.38;;;1.75;;
39442;SDS011;25147;52.142;9.960;2023-04-25T16:54:07;6.55;;;2.03;;
39442;SDS011;25147;52.142;9.960;2023-04-25T16:56:37;4.78;;;1.55;;
39442;SDS011;25147;52.142;9.960;2023-04-25T16:59:35;3.05;;;1.38;;
39442;SDS011;25147;52.142;9.960;2023-04-25T17:05:54;3.08;;;1.40;;
39442;SDS011;25147;52.142;9.960;2023-04-25T17:08:22;4.00;;;1.45;;
39442;SDS011;25147;52.142;9.960;2023-04-25T17:11:03;4.30;;;1.02;;
39442;SDS011;25147;52.142;9.960;2023-04-25T17:13:36;7.53;;;1.65;;
39442;SDS011;25147;52.142;9.960;2023-04-25T17:16:09;5.63;;;2.08;;
39442;SDS011;25147;52.142;9.960;2023-04-25T17:18:41;2.35;;;1.30;;
39442;SDS011;25147;52.142;9.960;2023-04-25T17:21:23;2.90;;;1.80;;
39442;SDS011;25147;52.142;9.960;2023-04-25T17:23:50;3.60;;;1.58;;
39442;SDS011;25147;52.142;9.960;2023-04-25T17:26:21;2.85;;;1.52;;
39442;SDS011;25147;52.142;9.960;2023-04-25T17:28:49;4.05;;;1.40;;
39442;SDS011;25147;52.142;9.960;2023-04-25T17:31:16;5.18;;;2.40;;
39442;SDS011;25147;52.142;9.960;2023-04-25T17:33:49;5.10;;;1.85;;
39442;SDS011;25147;52.142;9.960;2023-04-25T17:39:20;3.88;;;1.52;;
39442;SDS011;25147;52.142;9.960;2023-04-25T17:45:12;3.65;;;1.67;;
39442;SDS011;25147;52.142;9.960;2023-04-25T17:48:07;4.25;;;1.80;;
39442;SDS011;25147;52.142;9.960;2023-04-25T17:50:57;5.78;;;2.47;;
39442;SDS011;25147;52.142;9.960;2023-04-25T17:56:25;3.30;;;2.22;;
39442;SDS011;25147;52.142;9.960;2023-04-25T17:58:58;5.43;;;2.43;;
39442;SDS011;25147;52.142;9.960;2023-04-25T18:01:41;6.07;;;2.20;;
39442;SDS011;25147;52.142;9.960;2023-04-25T18:04:14;4.90;;;1.73;;
39442;SDS011;25147;52.142;9.960;2023-04-25T18:06:47;5.07;;;1.63;;
39442;SDS011;25147;52.142;9.960;2023-04-25T18:09:44;3.55;;;2.10;;
39442;SDS011;25147;52.142;9.960;2023-04-25T18:12:16;2.97;;;1.90;;
39442;SDS011;25147;52.142;9.960;2023-04-25T18:17:54;4.85;;;2.42;;
39442;SDS011;25147;52.142;9.960;2023-04-25T18:20:27;4.93;;;2.47;;
39442;SDS011;25147;52.142;9.960;2023-04-25T18:23:16;4.33;;;2.40;;
39442;SDS011;25147;52.142;9.960;2023-04-25T18:26:08;4.38;;;2.40;;
39442;SDS011;25147;52.142;9.960;2023-04-25T18:28:45;7.30;;;2.15;;
39442;SDS011;25147;52.142;9.960;2023-04-25T18:31:28;7.03;;;2.13;;
39442;SDS011;25147;52.142;9.960;2023-04-25T18:34:28;8.23;;;2.30;;
39442;SDS011;25147;52.142;9.960;2023-04-25T18:37:16;4.78;;;2.00;;